sensor_id;sensor_type;location;lat;lon;timestamp;temperature;humidity
72602;DHT22;60644;55.858;37.390;2022-07-17T00:00:41;18.44;55.95
72602;DHT22;60644;55.858;37.390;2022-07-17T00:03:09;18.40;56.60
72602;DHT22;60644;55.858;37.390;2022-07-17T00:05:35;18.39;56.66
72602;DHT22;60644;55.858;37.390;2022-07-17T00:08:01;18.37;56.05
72602;DHT22;60644;55.858;37.390;2022-07-17T00:10:27;18.35;56.17
72602;DHT22;60644;55.858;37.390;2022-07-17T00:12:53;0.00;0.00
72602;DHT22;60644;55.858;37.390;2022-07-17T00:15:19;0.00;0.00
72602;DHT22;60644;55.858;37.390;2022-07-17T00:17:45;0.00;0.00
72602;DHT22;60644;55.858;37.390;2022-07-17T00:20:11;0.00;0.00
72602;DHT22;60644;55.858;37.390;2022-07-17T00:22:37;0.00;0.00
72602;DHT22;60644;55.858;37.390;2022-07-17T00:25:04;0.00;0.00
72602;DHT22;60644;55.858;37.390;2022-07-17T00:27:30;0.00;0.00
72602;DHT22;60644;55.858;37.390;2022-07-17T00:29:56;0.00;0.00
72602;DHT22;60644;55.858;37.390;2022-07-17T00:32:22;0.00;0.00
72602;DHT22;60644;55.858;37.390;2022-07-17T00:34:50;0.00;0.00
72602;DHT22;60644;55.858;37.390;2022-07-17T00:37:16;0.00;0.00
72602;DHT22;60644;55.858;37.390;2022-07-17T00:39:42;0.00;0.00
72602;DHT22;60644;55.858;37.390;2022-07-17T00:42:15;0.00;0.00
72602;DHT22;60644;55.858;37.390;2022-07-17T00:44:42;0.00;0.00
72602;DHT22;60644;55.858;37.390;2022-07-17T00:47:19;0.00;0.00
72602;DHT22;60644;55.858;37.390;2022-07-17T00:49:46;0.00;0.00
72602;DHT22;60644;55.858;37.390;2022-07-17T00:52:13;0.00;0.00
72602;DHT22;60644;55.858;37.390;2022-07-17T00:54:41;0.00;0.00
72602;DHT22;60644;55.858;37.390;2022-07-17T00:57:09;0.00;0.00
72602;DHT22;60644;55.858;37.390;2022-07-17T00:59:37;0.00;0.00
72602;DHT22;60644;55.858;37.390;2022-07-17T01:02:09;0.00;0.00
72602;DHT22;60644;55.858;37.390;2022-07-17T01:04:36;0.00;0.00
72602;DHT22;60644;55.858;37.390;2022-07-17T01:07:03;0.00;0.00
72602;DHT22;60644;55.858;37.390;2022-07-17T01:09:31;0.00;0.00
72602;DHT22;60644;55.858;37.390;2022-07-17T01:11:57;0.00;0.00
72602;DHT22;60644;55.858;37.390;2022-07-17T01:14:24;0.00;0.00
72602;DHT22;60644;55.858;37.390;2022-07-17T01:16:51;0.00;0.00
72602;DHT22;60644;55.858;37.390;2022-07-17T01:19:18;0.00;0.00
72602;DHT22;60644;55.858;37.390;2022-07-17T01:21:46;0.00;0.00
72602;DHT22;60644;55.858;37.390;2022-07-17T01:24:13;0.00;0.00
72602;DHT22;60644;55.858;37.390;2022-07-17T01:26:43;0.00;0.00
72602;DHT22;60644;55.858;37.390;2022-07-17T01:29:10;0.00;0.00
72602;DHT22;60644;55.858;37.390;2022-07-17T01:31:38;0.00;0.00
72602;DHT22;60644;55.858;37.390;2022-07-17T01:34:05;0.00;0.00
72602;DHT22;60644;55.858;37.390;2022-07-17T01:36:32;0.00;0.00
72602;DHT22;60644;55.858;37.390;2022-07-17T01:38:58;0.00;0.00
72602;DHT22;60644;55.858;37.390;2022-07-17T01:41:23;0.00;0.00
72602;DHT22;60644;55.858;37.390;2022-07-17T01:43:49;0.00;0.00
72602;DHT22;60644;55.858;37.390;2022-07-17T01:46:15;0.00;0.00
72602;DHT22;60644;55.858;37.390;2022-07-17T01:48:41;0.00;0.00
72602;DHT22;60644;55.858;37.390;2022-07-17T01:51:07;0.00;0.00
72602;DHT22;60644;55.858;37.390;2022-07-17T01:53:33;0.00;0.00
72602;DHT22;60644;55.858;37.390;2022-07-17T01:55:59;0.00;0.00
72602;DHT22;60644;55.858;37.390;2022-07-17T01:58:25;0.00;0.00
72602;DHT22;60644;55.858;37.390;2022-07-17T02:00:51;0.00;0.00
72602;DHT22;60644;55.858;37.390;2022-07-17T02:03:18;0.00;0.00
72602;DHT22;60644;55.858;37.390;2022-07-17T02:05:44;0.00;0.00
72602;DHT22;60644;55.858;37.390;2022-07-17T02:08:09;0.00;0.00
72602;DHT22;60644;55.858;37.390;2022-07-17T02:10:35;0.00;0.00
72602;DHT22;60644;55.858;37.390;2022-07-17T02:13:01;0.00;0.00
72602;DHT22;60644;55.858;37.390;2022-07-17T02:15:47;0.00;0.00
72602;DHT22;60644;55.858;37.390;2022-07-17T02:18:13;0.00;0.00
72602;DHT22;60644;55.858;37.390;2022-07-17T02:20:39;0.00;0.00
72602;DHT22;60644;55.858;37.390;2022-07-17T02:23:07;0.00;0.00
72602;DHT22;60644;55.858;37.390;2022-07-17T02:25:33;0.00;0.00
72602;DHT22;60644;55.858;37.390;2022-07-17T02:27:59;0.00;0.00
72602;DHT22;60644;55.858;37.390;2022-07-17T02:30:25;0.00;0.00
72602;DHT22;60644;55.858;37.390;2022-07-17T02:32:51;0.00;0.00
72602;DHT22;60644;55.858;37.390;2022-07-17T02:35:17;0.00;0.00
72602;DHT22;60644;55.858;37.390;2022-07-17T02:37:42;0.00;0.00
72602;DHT22;60644;55.858;37.390;2022-07-17T02:40:10;0.00;0.00
72602;DHT22;60644;55.858;37.390;2022-07-17T02:42:36;0.00;0.00
72602;DHT22;60644;55.858;37.390;2022-07-17T02:45:02;0.00;0.00
72602;DHT22;60644;55.858;37.390;2022-07-17T02:47:32;0.00;0.00
72602;DHT22;60644;55.858;37.390;2022-07-17T02:49:58;0.00;0.00
72602;DHT22;60644;55.858;37.390;2022-07-17T02:52:27;0.00;0.00
72602;DHT22;60644;55.858;37.390;2022-07-17T02:54:53;0.00;0.00
72602;DHT22;60644;55.858;37.390;2022-07-17T02:57:19;0.00;0.00
72602;DHT22;60644;55.858;37.390;2022-07-17T02:59:46;0.00;0.00
72602;DHT22;60644;55.858;37.390;2022-07-17T03:02:13;0.00;0.00
72602;DHT22;60644;55.858;37.390;2022-07-17T03:04:39;0.00;0.00
72602;DHT22;60644;55.858;37.390;2022-07-17T03:07:05;0.00;0.00
72602;DHT22;60644;55.858;37.390;2022-07-17T03:09:31;0.00;0.00
72602;DHT22;60644;55.858;37.390;2022-07-17T03:11:58;0.00;0.00
72602;DHT22;60644;55.858;37.390;2022-07-17T03:14:24;0.00;0.00
72602;DHT22;60644;55.858;37.390;2022-07-17T03:16:50;0.00;0.00
72602;DHT22;60644;55.858;37.390;2022-07-17T03:19:16;0.00;0.00
72602;DHT22;60644;55.858;37.390;2022-07-17T03:21:42;0.00;0.00
72602;DHT22;60644;55.858;37.390;2022-07-17T03:24:08;0.00;0.00
72602;DHT22;60644;55.858;37.390;2022-07-17T03:26:34;0.00;0.00
72602;DHT22;60644;55.858;37.390;2022-07-17T03:28:59;0.00;0.00
72602;DHT22;60644;55.858;37.390;2022-07-17T03:31:25;0.00;0.00
72602;DHT22;60644;55.858;37.390;2022-07-17T03:33:51;0.00;0.00
72602;DHT22;60644;55.858;37.390;2022-07-17T03:36:17;0.00;0.00
72602;DHT22;60644;55.858;37.390;2022-07-17T03:38:43;0.00;0.00
72602;DHT22;60644;55.858;37.390;2022-07-17T03:41:09;0.00;0.00
72602;DHT22;60644;55.858;37.390;2022-07-17T03:43:35;0.00;0.00
72602;DHT22;60644;55.858;37.390;2022-07-17T03:46:01;0.00;0.00
72602;DHT22;60644;55.858;37.390;2022-07-17T03:48:26;0.00;0.00
72602;DHT22;60644;55.858;37.390;2022-07-17T03:50:52;0.00;0.00
72602;DHT22;60644;55.858;37.390;2022-07-17T03:53:18;0.00;0.00
72602;DHT22;60644;55.858;37.390;2022-07-17T03:55:44;0.00;0.00
72602;DHT22;60644;55.858;37.390;2022-07-17T03:58:20;0.00;0.00
72602;DHT22;60644;55.858;37.390;2022-07-17T04:00:46;0.00;0.00
72602;DHT22;60644;55.858;37.390;2022-07-17T04:03:12;0.00;0.00
72602;DHT22;60644;55.858;37.390;2022-07-17T04:05:37;0.00;0.00
72602;DHT22;60644;55.858;37.390;2022-07-17T04:08:04;0.00;0.00
72602;DHT22;60644;55.858;37.390;2022-07-17T04:10:30;0.00;0.00
72602;DHT22;60644;55.858;37.390;2022-07-17T04:12:55;0.00;0.00
72602;DHT22;60644;55.858;37.390;2022-07-17T04:15:21;0.00;0.00
72602;DHT22;60644;55.858;37.390;2022-07-17T04:18:06;0.00;0.00
72602;DHT22;60644;55.858;37.390;2022-07-17T04:20:31;0.00;0.00
72602;DHT22;60644;55.858;37.390;2022-07-17T04:22:57;0.00;0.00
72602;DHT22;60644;55.858;37.390;2022-07-17T04:25:25;0.00;0.00
72602;DHT22;60644;55.858;37.390;2022-07-17T04:27:51;0.00;0.00
72602;DHT22;60644;55.858;37.390;2022-07-17T04:30:16;0.00;0.00
72602;DHT22;60644;55.858;37.390;2022-07-17T04:32:42;0.00;0.00
72602;DHT22;60644;55.858;37.390;2022-07-17T04:35:08;0.00;0.00
72602;DHT22;60644;55.858;37.390;2022-07-17T04:37:34;0.00;0.00
72602;DHT22;60644;55.858;37.390;2022-07-17T04:40:00;0.00;0.00
72602;DHT22;60644;55.858;37.390;2022-07-17T04:42:26;0.00;0.00
72602;DHT22;60644;55.858;37.390;2022-07-17T04:44:51;0.00;0.00
72602;DHT22;60644;55.858;37.390;2022-07-17T04:47:17;0.00;0.00
72602;DHT22;60644;55.858;37.390;2022-07-17T04:49:43;0.00;0.00
72602;DHT22;60644;55.858;37.390;2022-07-17T04:52:09;0.00;0.00
72602;DHT22;60644;55.858;37.390;2022-07-17T04:54:35;0.00;0.00
72602;DHT22;60644;55.858;37.390;2022-07-17T04:57:01;0.00;0.00
72602;DHT22;60644;55.858;37.390;2022-07-17T04:59:27;0.00;0.00
72602;DHT22;60644;55.858;37.390;2022-07-17T05:01:52;0.00;0.00
72602;DHT22;60644;55.858;37.390;2022-07-17T05:04:18;0.00;0.00
72602;DHT22;60644;55.858;37.390;2022-07-17T05:06:44;0.00;0.00
72602;DHT22;60644;55.858;37.390;2022-07-17T05:09:10;0.00;0.00
72602;DHT22;60644;55.858;37.390;2022-07-17T05:11:36;0.00;0.00
72602;DHT22;60644;55.858;37.390;2022-07-17T05:14:02;0.00;0.00
72602;DHT22;60644;55.858;37.390;2022-07-17T05:16:28;0.00;0.00
72602;DHT22;60644;55.858;37.390;2022-07-17T05:18:54;0.00;0.00
72602;DHT22;60644;55.858;37.390;2022-07-17T05:21:20;0.00;0.00
72602;DHT22;60644;55.858;37.390;2022-07-17T05:23:46;0.00;0.00
72602;DHT22;60644;55.858;37.390;2022-07-17T05:26:12;0.00;0.00
72602;DHT22;60644;55.858;37.390;2022-07-17T05:28:38;0.00;0.00
72602;DHT22;60644;55.858;37.390;2022-07-17T05:31:04;0.00;0.00
72602;DHT22;60644;55.858;37.390;2022-07-17T05:33:30;0.00;0.00
72602;DHT22;60644;55.858;37.390;2022-07-17T05:35:56;0.00;0.00
72602;DHT22;60644;55.858;37.390;2022-07-17T05:38:22;0.00;0.00
72602;DHT22;60644;55.858;37.390;2022-07-17T05:40:48;0.00;0.00
72602;DHT22;60644;55.858;37.390;2022-07-17T05:43:13;0.00;0.00
72602;DHT22;60644;55.858;37.390;2022-07-17T05:45:39;0.00;0.00
72602;DHT22;60644;55.858;37.390;2022-07-17T05:48:06;0.00;0.00
72602;DHT22;60644;55.858;37.390;2022-07-17T05:50:33;0.00;0.00
72602;DHT22;60644;55.858;37.390;2022-07-17T05:52:59;0.00;0.00
72602;DHT22;60644;55.858;37.390;2022-07-17T05:55:25;0.00;0.00
72602;DHT22;60644;55.858;37.390;2022-07-17T05:57:51;0.00;0.00
72602;DHT22;60644;55.858;37.390;2022-07-17T06:00:17;0.00;0.00
72602;DHT22;60644;55.858;37.390;2022-07-17T06:02:44;0.00;0.00
72602;DHT22;60644;55.858;37.390;2022-07-17T06:05:10;0.00;0.00
72602;DHT22;60644;55.858;37.390;2022-07-17T06:07:37;0.00;0.00
72602;DHT22;60644;55.858;37.390;2022-07-17T06:10:04;0.00;0.00
72602;DHT22;60644;55.858;37.390;2022-07-17T06:12:30;0.00;0.00
72602;DHT22;60644;55.858;37.390;2022-07-17T06:14:56;0.00;0.00
72602;DHT22;60644;55.858;37.390;2022-07-17T06:17:22;0.00;0.00
72602;DHT22;60644;55.858;37.390;2022-07-17T06:19:48;0.00;0.00
72602;DHT22;60644;55.858;37.390;2022-07-17T06:22:18;0.00;0.00
72602;DHT22;60644;55.858;37.390;2022-07-17T06:24:45;0.00;0.00
72602;DHT22;60644;55.858;37.390;2022-07-17T06:27:11;0.00;0.00
72602;DHT22;60644;55.858;37.390;2022-07-17T06:29:37;0.00;0.00
72602;DHT22;60644;55.858;37.390;2022-07-17T06:32:03;0.00;0.00
72602;DHT22;60644;55.858;37.390;2022-07-17T06:34:29;0.00;0.00
72602;DHT22;60644;55.858;37.390;2022-07-17T06:36:55;0.00;0.00
72602;DHT22;60644;55.858;37.390;2022-07-17T06:39:21;0.00;0.00
72602;DHT22;60644;55.858;37.390;2022-07-17T06:41:47;0.00;0.00
72602;DHT22;60644;55.858;37.390;2022-07-17T06:44:14;30.31;35.92
72602;DHT22;60644;55.858;37.390;2022-07-17T06:46:40;0.00;0.00
72602;DHT22;60644;55.858;37.390;2022-07-17T06:49:06;0.00;0.00
72602;DHT22;60644;55.858;37.390;2022-07-17T06:51:32;33.83;32.50
72602;DHT22;60644;55.858;37.390;2022-07-17T06:53:58;34.50;27.70
72602;DHT22;60644;55.858;37.390;2022-07-17T06:56:24;34.05;30.79
72602;DHT22;60644;55.858;37.390;2022-07-17T06:58:50;34.59;28.68
72602;DHT22;60644;55.858;37.390;2022-07-17T07:01:15;34.98;29.61
72602;DHT22;60644;55.858;37.390;2022-07-17T07:03:42;35.12;29.10
72602;DHT22;60644;55.858;37.390;2022-07-17T07:06:08;33.36;26.12
72602;DHT22;60644;55.858;37.390;2022-07-17T07:08:34;30.82;31.02
72602;DHT22;60644;55.858;37.390;2022-07-17T07:11:02;29.11;30.98
72602;DHT22;60644;55.858;37.390;2022-07-17T07:13:28;29.01;34.42
72602;DHT22;60644;55.858;37.390;2022-07-17T07:15:54;30.92;30.77
72602;DHT22;60644;55.858;37.390;2022-07-17T07:18:21;32.73;32.50
72602;DHT22;60644;55.858;37.390;2022-07-17T07:20:47;34.17;27.02
72602;DHT22;60644;55.858;37.390;2022-07-17T07:23:13;34.99;26.45
72602;DHT22;60644;55.858;37.390;2022-07-17T07:25:39;35.35;25.76
72602;DHT22;60644;55.858;37.390;2022-07-17T07:28:05;35.86;27.52
72602;DHT22;60644;55.858;37.390;2022-07-17T07:30:31;36.40;25.85
72602;DHT22;60644;55.858;37.390;2022-07-17T07:32:57;37.13;23.81
72602;DHT22;60644;55.858;37.390;2022-07-17T07:35:23;0.00;0.00
72602;DHT22;60644;55.858;37.390;2022-07-17T07:37:51;0.00;0.00
72602;DHT22;60644;55.858;37.390;2022-07-17T07:40:17;0.00;0.00
72602;DHT22;60644;55.858;37.390;2022-07-17T07:42:43;0.00;0.00
72602;DHT22;60644;55.858;37.390;2022-07-17T07:45:09;0.00;0.00
72602;DHT22;60644;55.858;37.390;2022-07-17T07:47:43;0.00;0.00
72602;DHT22;60644;55.858;37.390;2022-07-17T07:50:10;0.00;0.00
72602;DHT22;60644;55.858;37.390;2022-07-17T07:52:37;0.00;0.00
72602;DHT22;60644;55.858;37.390;2022-07-17T07:55:04;0.00;0.00
72602;DHT22;60644;55.858;37.390;2022-07-17T07:57:30;36.96;21.81
72602;DHT22;60644;55.858;37.390;2022-07-17T07:59:56;34.09;22.92
72602;DHT22;60644;55.858;37.390;2022-07-17T08:02:22;31.95;23.59
72602;DHT22;60644;55.858;37.390;2022-07-17T08:04:48;30.39;27.13
72602;DHT22;60644;55.858;37.390;2022-07-17T08:07:14;29.17;29.11
72602;DHT22;60644;55.858;37.390;2022-07-17T08:09:40;28.16;30.25
72602;DHT22;60644;55.858;37.390;2022-07-17T08:12:06;27.40;31.14
72602;DHT22;60644;55.858;37.390;2022-07-17T08:14:32;26.81;31.99
72602;DHT22;60644;55.858;37.390;2022-07-17T08:17:14;26.34;31.89
72602;DHT22;60644;55.858;37.390;2022-07-17T08:19:41;25.81;32.51
72602;DHT22;60644;55.858;37.390;2022-07-17T08:22:06;25.37;33.24
72602;DHT22;60644;55.858;37.390;2022-07-17T08:24:35;25.15;34.18
72602;DHT22;60644;55.858;37.390;2022-07-17T08:27:11;24.91;34.50
72602;DHT22;60644;55.858;37.390;2022-07-17T08:29:37;24.79;34.53
72602;DHT22;60644;55.858;37.390;2022-07-17T08:32:03;24.56;34.76
72602;DHT22;60644;55.858;37.390;2022-07-17T08:34:29;24.48;35.35
72602;DHT22;60644;55.858;37.390;2022-07-17T08:36:55;24.44;35.50
72602;DHT22;60644;55.858;37.390;2022-07-17T08:39:21;24.36;35.88
72602;DHT22;60644;55.858;37.390;2022-07-17T08:41:47;24.39;35.72
72602;DHT22;60644;55.858;37.390;2022-07-17T08:44:13;24.35;34.02
72602;DHT22;60644;55.858;37.390;2022-07-17T08:46:39;24.30;35.15
72602;DHT22;60644;55.858;37.390;2022-07-17T08:49:07;24.18;35.76
72602;DHT22;60644;55.858;37.390;2022-07-17T08:51:34;24.10;36.14
72602;DHT22;60644;55.858;37.390;2022-07-17T08:54:00;23.84;37.20
72602;DHT22;60644;55.858;37.390;2022-07-17T08:56:27;23.59;36.93
72602;DHT22;60644;55.858;37.390;2022-07-17T08:58:53;23.15;37.37
72602;DHT22;60644;55.858;37.390;2022-07-17T09:01:22;0.00;38.94
72602;DHT22;60644;55.858;37.390;2022-07-17T09:03:58;22.19;39.85
72602;DHT22;60644;55.858;37.390;2022-07-17T09:06:26;21.67;43.45
72602;DHT22;60644;55.858;37.390;2022-07-17T09:09:03;21.45;47.31
72602;DHT22;60644;55.858;37.390;2022-07-17T09:11:29;21.49;44.81
72602;DHT22;60644;55.858;37.390;2022-07-17T09:13:56;21.51;43.70
72602;DHT22;60644;55.858;37.390;2022-07-17T09:16:23;21.55;46.17
72602;DHT22;60644;55.858;37.390;2022-07-17T09:18:51;21.59;45.15
72602;DHT22;60644;55.858;37.390;2022-07-17T09:21:20;21.43;46.41
72602;DHT22;60644;55.858;37.390;2022-07-17T09:24:00;21.27;45.60
72602;DHT22;60644;55.858;37.390;2022-07-17T09:26:29;21.31;44.89
72602;DHT22;60644;55.858;37.390;2022-07-17T09:28:55;21.31;45.60
72602;DHT22;60644;55.858;37.390;2022-07-17T09:31:29;21.34;44.29
72602;DHT22;60644;55.858;37.390;2022-07-17T09:33:55;21.35;46.18
72602;DHT22;60644;55.858;37.390;2022-07-17T09:36:22;21.22;46.49
72602;DHT22;60644;55.858;37.390;2022-07-17T09:38:52;21.19;45.03
72602;DHT22;60644;55.858;37.390;2022-07-17T09:41:20;21.25;44.50
72602;DHT22;60644;55.858;37.390;2022-07-17T09:43:55;21.36;44.01
72602;DHT22;60644;55.858;37.390;2022-07-17T09:46:28;21.46;43.84
72602;DHT22;60644;55.858;37.390;2022-07-17T09:49:05;21.52;43.77
72602;DHT22;60644;55.858;37.390;2022-07-17T09:51:35;21.58;43.79
72602;DHT22;60644;55.858;37.390;2022-07-17T09:54:06;21.69;43.31
72602;DHT22;60644;55.858;37.390;2022-07-17T09:56:34;21.73;43.54
72602;DHT22;60644;55.858;37.390;2022-07-17T09:59:10;21.81;42.82
72602;DHT22;60644;55.858;37.390;2022-07-17T10:01:38;21.98;42.15
72602;DHT22;60644;55.858;37.390;2022-07-17T10:04:04;22.13;42.53
72602;DHT22;60644;55.858;37.390;2022-07-17T10:06:31;22.29;42.96
72602;DHT22;60644;55.858;37.390;2022-07-17T10:08:58;22.36;42.40
72602;DHT22;60644;55.858;37.390;2022-07-17T10:11:27;22.44;42.45
72602;DHT22;60644;55.858;37.390;2022-07-17T10:13:56;22.57;41.07
72602;DHT22;60644;55.858;37.390;2022-07-17T10:16:28;22.69;40.23
72602;DHT22;60644;55.858;37.390;2022-07-17T10:18:55;22.81;40.22
72602;DHT22;60644;55.858;37.390;2022-07-17T10:21:24;22.87;39.37
72602;DHT22;60644;55.858;37.390;2022-07-17T10:26:39;22.97;37.37
72602;DHT22;60644;55.858;37.390;2022-07-17T10:29:32;23.08;37.59
72602;DHT22;60644;55.858;37.390;2022-07-17T10:32:00;23.18;38.57
72602;DHT22;60644;55.858;37.390;2022-07-17T10:34:47;23.21;37.77
72602;DHT22;60644;55.858;37.390;2022-07-17T10:40:00;23.36;36.24
72602;DHT22;60644;55.858;37.390;2022-07-17T10:45:15;23.46;37.62
72602;DHT22;60644;55.858;37.390;2022-07-17T10:50:31;23.51;36.82
72602;DHT22;60644;55.858;37.390;2022-07-17T10:53:04;23.55;37.39
72602;DHT22;60644;55.858;37.390;2022-07-17T10:55:31;23.83;36.26
72602;DHT22;60644;55.858;37.390;2022-07-17T10:57:57;24.58;36.46
72602;DHT22;60644;55.858;37.390;2022-07-17T11:00:25;24.62;34.75
72602;DHT22;60644;55.858;37.390;2022-07-17T11:02:53;24.50;36.47
72602;DHT22;60644;55.858;37.390;2022-07-17T11:05:19;24.40;36.88
72602;DHT22;60644;55.858;37.390;2022-07-17T11:07:50;24.49;36.48
72602;DHT22;60644;55.858;37.390;2022-07-17T11:10:16;24.54;36.73
72602;DHT22;60644;55.858;37.390;2022-07-17T11:12:43;24.53;37.42
72602;DHT22;60644;55.858;37.390;2022-07-17T11:15:09;24.61;36.48
72602;DHT22;60644;55.858;37.390;2022-07-17T11:17:36;24.77;37.11
72602;DHT22;60644;55.858;37.390;2022-07-17T11:20:03;24.79;35.40
72602;DHT22;60644;55.858;37.390;2022-07-17T11:22:30;24.62;36.61
72602;DHT22;60644;55.858;37.390;2022-07-17T11:24:56;25.00;36.03
72602;DHT22;60644;55.858;37.390;2022-07-17T11:27:27;25.02;36.72
72602;DHT22;60644;55.858;37.390;2022-07-17T11:29:55;25.10;36.15
72602;DHT22;60644;55.858;37.390;2022-07-17T11:32:22;25.27;36.22
72602;DHT22;60644;55.858;37.390;2022-07-17T11:34:48;25.45;35.40
72602;DHT22;60644;55.858;37.390;2022-07-17T11:37:15;25.72;35.10
72602;DHT22;60644;55.858;37.390;2022-07-17T11:39:46;25.91;35.73
72602;DHT22;60644;55.858;37.390;2022-07-17T11:42:17;26.05;35.10
72602;DHT22;60644;55.858;37.390;2022-07-17T11:44:44;26.10;33.80
72602;DHT22;60644;55.858;37.390;2022-07-17T11:47:12;26.16;33.60
72602;DHT22;60644;55.858;37.390;2022-07-17T11:49:39;26.23;34.59
72602;DHT22;60644;55.858;37.390;2022-07-17T11:52:16;26.24;34.05
72602;DHT22;60644;55.858;37.390;2022-07-17T11:54:51;26.21;34.31
72602;DHT22;60644;55.858;37.390;2022-07-17T11:57:19;25.95;35.03
72602;DHT22;60644;55.858;37.390;2022-07-17T11:59:45;25.61;35.28
72602;DHT22;60644;55.858;37.390;2022-07-17T12:02:16;25.27;35.95
72602;DHT22;60644;55.858;37.390;2022-07-17T12:04:58;25.06;35.73
72602;DHT22;60644;55.858;37.390;2022-07-17T12:07:58;24.85;35.50
72602;DHT22;60644;55.858;37.390;2022-07-17T12:10:38;24.94;34.97
72602;DHT22;60644;55.858;37.390;2022-07-17T12:13:06;25.10;35.03
72602;DHT22;60644;55.858;37.390;2022-07-17T12:15:54;25.37;33.99
72602;DHT22;60644;55.858;37.390;2022-07-17T12:18:32;25.64;34.29
72602;DHT22;60644;55.858;37.390;2022-07-17T12:21:02;25.71;34.54
72602;DHT22;60644;55.858;37.390;2022-07-17T12:24:02;25.80;33.87
72602;DHT22;60644;55.858;37.390;2022-07-17T12:26:28;25.88;33.37
72602;DHT22;60644;55.858;37.390;2022-07-17T12:28:54;25.76;32.78
72602;DHT22;60644;55.858;37.390;2022-07-17T12:31:21;25.64;34.09
72602;DHT22;60644;55.858;37.390;2022-07-17T12:33:51;25.68;33.05
72602;DHT22;60644;55.858;37.390;2022-07-17T12:36:18;25.82;33.86
72602;DHT22;60644;55.858;37.390;2022-07-17T12:38:44;25.96;33.18
72602;DHT22;60644;55.858;37.390;2022-07-17T12:41:11;26.09;32.91
72602;DHT22;60644;55.858;37.390;2022-07-17T12:43:37;25.88;33.99
72602;DHT22;60644;55.858;37.390;2022-07-17T12:46:03;25.45;32.60
72602;DHT22;60644;55.858;37.390;2022-07-17T12:48:29;25.08;32.89
72602;DHT22;60644;55.858;37.390;2022-07-17T12:50:55;24.80;33.39
72602;DHT22;60644;55.858;37.390;2022-07-17T12:53:21;24.57;34.31
72602;DHT22;60644;55.858;37.390;2022-07-17T12:55:46;24.45;35.33
72602;DHT22;60644;55.858;37.390;2022-07-17T12:58:12;24.29;35.40
72602;DHT22;60644;55.858;37.390;2022-07-17T13:00:38;24.13;35.97
72602;DHT22;60644;55.858;37.390;2022-07-17T13:03:05;24.08;36.48
72602;DHT22;60644;55.858;37.390;2022-07-17T13:05:31;23.95;36.47
72602;DHT22;60644;55.858;37.390;2022-07-17T13:07:57;23.95;36.72
72602;DHT22;60644;55.858;37.390;2022-07-17T13:10:23;23.88;36.53
72602;DHT22;60644;55.858;37.390;2022-07-17T13:12:49;23.84;36.90
72602;DHT22;60644;55.858;37.390;2022-07-17T13:15:15;23.79;37.30
72602;DHT22;60644;55.858;37.390;2022-07-17T13:17:41;23.79;37.34
72602;DHT22;60644;55.858;37.390;2022-07-17T13:20:08;23.73;37.43
72602;DHT22;60644;55.858;37.390;2022-07-17T13:22:35;23.71;37.60
72602;DHT22;60644;55.858;37.390;2022-07-17T13:25:01;23.65;37.66
72602;DHT22;60644;55.858;37.390;2022-07-17T13:27:28;23.80;37.83
72602;DHT22;60644;55.858;37.390;2022-07-17T13:29:54;24.04;37.85
72602;DHT22;60644;55.858;37.390;2022-07-17T13:32:20;24.25;37.11
72602;DHT22;60644;55.858;37.390;2022-07-17T13:34:46;24.36;36.93
72602;DHT22;60644;55.858;37.390;2022-07-17T13:37:14;24.48;37.20
72602;DHT22;60644;55.858;37.390;2022-07-17T13:39:40;24.55;36.30
72602;DHT22;60644;55.858;37.390;2022-07-17T13:42:06;24.58;36.69
72602;DHT22;60644;55.858;37.390;2022-07-17T13:44:32;24.61;36.09
72602;DHT22;60644;55.858;37.390;2022-07-17T13:46:58;24.60;36.40
72602;DHT22;60644;55.858;37.390;2022-07-17T13:49:24;24.58;35.46
72602;DHT22;60644;55.858;37.390;2022-07-17T13:51:51;24.49;36.47
72602;DHT22;60644;55.858;37.390;2022-07-17T13:54:17;24.34;36.59
72602;DHT22;60644;55.858;37.390;2022-07-17T13:56:43;24.24;36.11
72602;DHT22;60644;55.858;37.390;2022-07-17T13:59:12;24.09;35.89
72602;DHT22;60644;55.858;37.390;2022-07-17T14:01:42;24.02;35.67
72602;DHT22;60644;55.858;37.390;2022-07-17T14:04:14;23.89;37.00
72602;DHT22;60644;55.858;37.390;2022-07-17T14:06:41;23.74;39.43
72602;DHT22;60644;55.858;37.390;2022-07-17T14:09:08;23.53;40.18
72602;DHT22;60644;55.858;37.390;2022-07-17T14:11:36;23.24;41.96
72602;DHT22;60644;55.858;37.390;2022-07-17T14:14:03;23.16;42.00
72602;DHT22;60644;55.858;37.390;2022-07-17T14:16:33;23.10;41.46
72602;DHT22;60644;55.858;37.390;2022-07-17T14:19:02;23.01;41.10
72602;DHT22;60644;55.858;37.390;2022-07-17T14:21:30;22.93;41.11
72602;DHT22;60644;55.858;37.390;2022-07-17T14:23:57;22.86;40.47
72602;DHT22;60644;55.858;37.390;2022-07-17T14:26:23;22.78;40.46
72602;DHT22;60644;55.858;37.390;2022-07-17T14:28:50;22.79;41.43
72602;DHT22;60644;55.858;37.390;2022-07-17T14:31:16;22.72;41.10
72602;DHT22;60644;55.858;37.390;2022-07-17T14:33:43;22.60;40.95
72602;DHT22;60644;55.858;37.390;2022-07-17T14:36:09;22.65;40.85
72602;DHT22;60644;55.858;37.390;2022-07-17T14:38:36;22.65;40.47
72602;DHT22;60644;55.858;37.390;2022-07-17T14:41:02;22.68;40.70
72602;DHT22;60644;55.858;37.390;2022-07-17T14:43:29;22.76;40.33
72602;DHT22;60644;55.858;37.390;2022-07-17T14:45:56;22.70;40.01
72602;DHT22;60644;55.858;37.390;2022-07-17T14:48:30;22.60;40.04
72602;DHT22;60644;55.858;37.390;2022-07-17T14:50:57;22.51;40.00
72602;DHT22;60644;55.858;37.390;2022-07-17T14:53:23;22.47;39.97
72602;DHT22;60644;55.858;37.390;2022-07-17T14:55:49;22.39;40.73
72602;DHT22;60644;55.858;37.390;2022-07-17T14:58:15;22.46;40.08
72602;DHT22;60644;55.858;37.390;2022-07-17T15:00:41;22.42;39.91
72602;DHT22;60644;55.858;37.390;2022-07-17T15:03:07;22.35;40.54
72602;DHT22;60644;55.858;37.390;2022-07-17T15:05:34;22.39;40.00
72602;DHT22;60644;55.858;37.390;2022-07-17T15:08:00;22.40;40.72
72602;DHT22;60644;55.858;37.390;2022-07-17T15:10:26;22.38;40.63
72602;DHT22;60644;55.858;37.390;2022-07-17T15:12:52;22.28;40.64
72602;DHT22;60644;55.858;37.390;2022-07-17T15:15:18;22.26;40.94
72602;DHT22;60644;55.858;37.390;2022-07-17T15:17:44;22.27;40.88
72602;DHT22;60644;55.858;37.390;2022-07-17T15:20:11;22.22;40.81
72602;DHT22;60644;55.858;37.390;2022-07-17T15:22:37;22.21;41.65
72602;DHT22;60644;55.858;37.390;2022-07-17T15:25:03;22.18;41.87
72602;DHT22;60644;55.858;37.390;2022-07-17T15:27:29;22.17;41.83
72602;DHT22;60644;55.858;37.390;2022-07-17T15:29:55;22.11;41.74
72602;DHT22;60644;55.858;37.390;2022-07-17T15:32:22;22.10;41.81
72602;DHT22;60644;55.858;37.390;2022-07-17T15:34:48;22.06;42.68
72602;DHT22;60644;55.858;37.390;2022-07-17T15:37:14;22.05;42.00
72602;DHT22;60644;55.858;37.390;2022-07-17T15:39:40;22.02;41.84
72602;DHT22;60644;55.858;37.390;2022-07-17T15:42:05;21.99;42.07